Time;durP1;ratioP1;P1;durP2;ratioP2;P2;SDS_P1;SDS_P2;PMS_P1;PMS_P2;Temp;Humidity;BMP_temperature;BMP_pressure;BME280_temperature;BME280_humidity;BME280_pressure;Samples;Min_cycle;Max_cycle;Signal;HPM_P1;HPM_P2
2021/08/31 00:01:46;;;;;;;5.03;4.63;;;;;;;14.35;100.00;100972.13;5011755;28;20204;-75
2021/08/31 00:04:12;;;;;;;4.73;4.33;;;;;;;14.40;100.00;100974.72;5011665;28;20183;-74
2021/08/31 00:06:37;;;;;;;8.43;4.67;;;;;;;14.36;100.00;100971.00;5011596;28;20222;-74
2021/08/31 00:09:02;;;;;;;4.97;4.57;;;;;;;14.39;100.00;100973.09;5011664;28;20204;-75
2021/08/31 00:11:28;;;;;;;5.20;4.63;;;;;;;14.45;100.00;100980.88;5011628;28;20390;-74
2021/08/31 00:13:53;;;;;;;4.73;4.33;;;;;;;14.38;100.00;100966.78;5011762;28;20204;-75
2021/08/31 00:16:18;;;;;;;5.20;4.80;;;;;;;14.38;100.00;100961.28;5010097;28;20187;-74
2021/08/31 00:18:44;;;;;;;4.80;4.43;;;;;;;14.40;100.00;100956.28;5011103;28;20203;-74
2021/08/31 00:21:10;;;;;;;5.27;4.70;;;;;;;14.42;100.00;100955.94;5011423;28;20181;-74
2021/08/31 00:23:36;;;;;;;4.40;4.00;;;;;;;14.48;100.00;100957.44;5011365;28;20563;-74
2021/08/31 00:26:02;;;;;;;4.13;3.37;;;;;;;14.48;100.00;100960.19;5010156;28;20184;-74
2021/08/31 00:28:28;;;;;;;5.93;4.33;;;;;;;14.47;100.00;100964.88;5010317;28;20192;-74
2021/08/31 00:30:53;;;;;;;4.63;4.23;;;;;;;14.53;100.00;100947.09;5010150;28;20220;-74
2021/08/31 00:33:18;;;;;;;4.33;4.00;;;;;;;14.65;100.00;100954.66;5011319;28;20260;-74
2021/08/31 00:35:45;;;;;;;5.33;3.83;;;;;;;14.72;100.00;100954.97;5009897;28;20180;-74
2021/08/31 00:38:10;;;;;;;3.73;3.53;;;;;;;14.86;100.00;100961.09;5011307;28;20187;-74
2021/08/31 00:40:36;;;;;;;3.90;3.60;;;;;;;14.92;100.00;100958.19;5011199;28;20181;-75
2021/08/31 00:43:02;;;;;;;4.03;3.73;;;;;;;14.87;100.00;100957.19;5011249;28;20486;-74
2021/08/31 00:45:28;;;;;;;3.67;3.37;;;;;;;14.81;100.00;100952.22;5011081;28;20168;-74
2021/08/31 00:47:54;;;;;;;3.90;3.60;;;;;;;14.84;100.00;100957.06;5011152;28;20176;-74
2021/08/31 00:50:20;;;;;;;4.23;3.80;;;;;;;14.63;100.00;100942.38;5011132;28;20200;-75
2021/08/31 00:52:46;;;;;;;4.00;3.70;;;;;;;14.69;100.00;100950.13;5011146;28;20183;-75
2021/08/31 00:55:11;;;;;;;4.20;3.87;;;;;;;14.70;100.00;100949.00;5010915;28;20188;-74
2021/08/31 00:57:41;;;;;;;4.27;3.97;;;;;;;14.79;100.00;100943.47;5011145;28;20766;-74
2021/08/31 01:00:09;;;;;;;4.20;3.87;;;;;;;14.81;100.00;100941.22;5011060;28;20177;-74
2021/08/31 01:02:35;;;;;;;4.33;3.93;;;;;;;14.76;100.00;100936.69;5009802;28;20184;-75
2021/08/31 01:05:01;;;;;;;3.93;3.63;;;;;;;14.73;100.00;100942.81;5010960;28;20235;-74
2021/08/31 01:07:27;;;;;;;3.90;3.57;;;;;;;14.80;100.00;100945.09;5010982;28;20180;-74
2021/08/31 01:09:53;;;;;;;5.30;4.03;;;;;;;14.82;100.00;100940.06;5010944;28;20279;-74
2021/08/31 01:12:18;;;;;;;3.50;3.20;;;;;;;14.78;100.00;100950.13;5009625;28;20326;-74
2021/08/31 01:14:45;;;;;;;4.27;3.83;;;;;;;14.73;100.00;100940.06;5010935;28;20172;-74
2021/08/31 01:17:10;;;;;;;4.13;3.83;;;;;;;14.69;100.00;100939.13;5009300;28;20192;-75
2021/08/31 01:19:35;;;;;;;4.67;4.00;;;;;;;14.60;100.00;100949.31;5010886;28;20550;-74
2021/08/31 01:22:07;;;;;;;4.40;4.03;;;;;;;14.51;100.00;100946.59;5010956;28;20201;-74
2021/08/31 01:24:32;;;;;;;4.53;4.13;;;;;;;14.48;100.00;100946.44;5010715;28;20247;-74
2021/08/31 01:26:59;;;;;;;5.07;4.67;;;;;;;14.43;100.00;100941.88;5010647;28;20189;-74
2021/08/31 01:29:26;;;;;;;4.40;4.00;;;;;;;14.43;100.00;100949.31;5010769;28;20205;-74
2021/08/31 01:31:51;;;;;;;6.00;5.00;;;;;;;14.36;100.00;100955.31;5010718;28;20534;-75
2021/08/31 01:34:17;;;;;;;5.00;4.30;;;;;;;14.30;100.00;101224.03;5010609;28;20267;-74
2021/08/31 01:36:42;;;;;;;5.30;4.90;;;;;;;14.24;100.00;101049.41;5010821;28;20173;-74
2021/08/31 01:39:07;;;;;;;7.93;4.90;;;;;;;14.21;100.00;101014.31;5010705;28;20636;-74
2021/08/31 01:41:33;;;;;;;5.67;5.17;;;;;;;14.14;100.00;101007.69;5010490;28;20528;-75
2021/08/31 01:43:58;;;;;;;5.20;4.63;;;;;;;14.04;100.00;100997.00;5010382;28;20223;-74
2021/08/31 01:46:24;;;;;;;4.90;4.40;;;;;;;13.97;100.00;100998.28;5010533;28;20192;-75
2021/08/31 01:48:49;;;;;;;5.00;4.60;;;;;;;13.90;100.00;101156.47;5009250;28;20179;-75
2021/08/31 01:51:14;;;;;;;5.80;5.23;;;;;;;13.87;100.00;101060.94;5009302;28;20204;-74
2021/08/31 01:53:40;;;;;;;4.93;4.47;;;;;;;13.78;100.00;101006.00;5010611;28;20173;-75
2021/08/31 01:56:06;;;;;;;4.60;4.20;;;;;;;13.69;100.00;100999.66;5013053;28;20636;-75
2021/08/31 01:58:31;;;;;;;4.83;4.43;;;;;;;13.61;100.00;100998.53;5014072;28;20470;-75
2021/08/31 02:00:57;;;;;;;8.50;4.63;;;;;;;13.56;100.00;101026.09;5014067;28;20185;-74
2021/08/31 02:03:22;;;;;;;4.80;4.40;;;;;;;13.50;100.00;101019.16;5013908;28;20169;-74
2021/08/31 02:05:47;;;;;;;4.33;3.93;;;;;;;13.46;100.00;101009.13;5013948;28;20183;-74
2021/08/31 02:08:13;;;;;;;5.87;5.27;;;;;;;13.47;100.00;101021.72;5012627;28;20182;-74
2021/08/31 02:10:38;;;;;;;5.50;5.00;;;;;;;13.50;100.00;101034.81;5013647;28;20255;-74
2021/08/31 02:13:04;;;;;;;5.77;5.27;;;;;;;13.52;100.00;101044.34;5012487;28;20640;-74
2021/08/31 02:15:30;;;;;;;8.53;5.23;;;;;;;13.56;100.00;101034.34;5013696;28;20223;-74
2021/08/31 02:17:56;;;;;;;4.73;4.33;;;;;;;13.59;100.00;101050.19;5013589;28;20284;-74
2021/08/31 02:20:21;;;;;;;5.47;5.03;;;;;;;13.63;100.00;101044.88;5013647;28;20576;-74
2021/08/31 02:22:46;;;;;;;6.13;5.63;;;;;;;13.65;100.00;101070.88;5013531;28;20599;-75
2021/08/31 02:25:12;;;;;;;5.80;5.30;;;;;;;13.70;100.00;101048.78;5013430;28;20181;-74
2021/08/31 02:27:37;;;;;;;6.70;6.00;;;;;;;13.75;100.00;100934.44;5013841;28;20180;-75
2021/08/31 02:30:04;;;;;;;8.40;5.90;;;;;;;13.73;100.00;100967.69;5013532;28;20616;-74
2021/08/31 02:32:29;;;;;;;7.07;6.40;;;;;;;13.76;100.00;100972.56;5013396;28;20176;-74
2021/08/31 02:34:55;;;;;;;6.73;6.13;;;;;;;13.76;100.00;100961.56;5013298;28;20183;-74
2021/08/31 02:37:20;;;;;;;7.40;6.53;;;;;;;13.79;100.00;100995.81;5012434;28;20616;-74
2021/08/31 02:39:45;;;;;;;8.57;6.60;;;;;;;13.80;100.00;100957.06;5013354;28;20176;-74
2021/08/31 02:42:11;;;;;;;7.83;6.57;;;;;;;13.78;100.00;100945.59;5013890;28;20215;-74
2021/08/31 02:44:36;;;;;;;7.70;6.30;;;;;;;13.78;100.00;100953.00;5013123;28;20494;-74
2021/08/31 02:47:02;;;;;;;6.63;6.03;;;;;;;13.74;100.00;100944.59;5013472;28;20177;-74
2021/08/31 02:49:27;;;;;;;7.67;6.97;;;;;;;13.74;100.00;100930.03;5013109;28;20548;-74
2021/08/31 02:51:53;;;;;;;7.20;6.50;;;;;;;13.72;100.00;100935.06;5013117;28;20572;-74
2021/08/31 02:54:18;;;;;;;8.13;7.33;;;;;;;13.73;100.00;100942.16;5012974;28;20182;-74
2021/08/31 02:56:44;;;;;;;8.50;7.80;;;;;;;13.72;100.00;100935.84;5013036;28;20222;-74
2021/08/31 02:59:09;;;;;;;7.93;7.23;;;;;;;13.75;100.00;100942.69;5013083;28;20180;-74
2021/08/31 03:01:37;;;;;;;8.30;7.50;;;;;;;13.73;100.00;100915.50;5012985;28;20176;-74
2021/08/31 03:04:04;;;;;;;8.23;7.63;;;;;;;13.69;100.00;100929.06;5012881;28;20177;-74
2021/08/31 03:06:31;;;;;;;8.27;7.47;;;;;;;13.63;100.00;100941.34;5010677;28;20177;-74
2021/08/31 03:08:57;;;;;;;8.47;7.67;;;;;;;13.62;100.00;100949.91;5011558;28;20220;-74
2021/08/31 03:11:22;;;;;;;8.93;7.07;;;;;;;13.55;100.00;100961.34;5012505;28;20176;-74
2021/08/31 03:13:48;;;;;;;9.33;7.87;;;;;;;13.54;100.00;100967.97;5012542;28;20659;-74
2021/08/31 03:16:14;;;;;;;8.13;7.53;;;;;;;13.52;100.00;100975.72;5012737;28;20227;-74
2021/08/31 03:18:39;;;;;;;8.10;7.40;;;;;;;13.53;100.00;100968.28;5012420;28;20193;-75
2021/08/31 03:21:05;;;;;;;8.10;7.37;;;;;;;13.53;100.00;100977.31;5012465;28;20176;-74
2021/08/31 03:23:30;;;;;;;8.63;7.80;;;;;;;13.54;100.00;100984.44;5012448;28;20546;-74
2021/08/31 03:25:56;;;;;;;8.70;7.90;;;;;;;13.55;100.00;100982.50;5012494;28;20177;-74
2021/08/31 03:28:21;;;;;;;10.40;8.77;;;;;;;13.53;100.00;100993.00;5012628;28;20205;-74
2021/08/31 03:30:46;;;;;;;7.77;7.07;;;;;;;13.52;100.00;100994.13;5012466;28;20233;-74
2021/08/31 03:33:12;;;;;;;9.27;8.47;;;;;;;13.51;100.00;100992.50;5012809;28;20256;-75
2021/08/31 03:35:37;;;;;;;8.50;7.77;;;;;;;13.55;100.00;100991.53;5013992;28;20276;-74
2021/08/31 03:38:03;;;;;;;8.33;7.60;;;;;;;13.54;100.00;101003.66;5013839;28;20504;-74
2021/08/31 03:40:28;;;;;;;9.53;8.63;;;;;;;13.58;100.00;101006.56;5012896;28;20181;-75
2021/08/31 03:42:53;;;;;;;9.93;9.13;;;;;;;13.60;100.00;101027.09;5012324;28;20203;-74
2021/08/31 03:45:19;;;;;;;9.83;8.83;;;;;;;13.62;100.00;101030.34;5012188;28;20720;-74
2021/08/31 03:47:44;;;;;;;9.10;8.27;;;;;;;13.65;100.00;101035.19;5012067;28;20199;-74
2021/08/31 03:50:10;;;;;;;10.93;9.87;;;;;;;13.69;100.00;101043.59;5011908;28;20697;-74
2021/08/31 03:52:35;;;;;;;10.43;9.43;;;;;;;13.70;100.00;101043.28;5012553;28;20226;-74
2021/08/31 03:55:01;;;;;;;11.03;9.93;;;;;;;13.75;100.00;101030.56;5010636;28;20251;-74
2021/08/31 03:57:26;;;;;;;10.50;9.43;;;;;;;13.77;100.00;101064.81;5012067;28;20172;-74
2021/08/31 03:59:52;;;;;;;10.03;9.13;;;;;;;13.81;100.00;101064.97;5012246;28;20208;-74
2021/08/31 04:02:17;;;;;;;11.80;10.03;;;;;;;13.84;100.00;101075.31;5011775;28;20209;-74
2021/08/31 04:04:43;;;;;;;11.67;10.37;;;;;;;13.86;100.00;101086.78;5011541;28;20211;-74
2021/08/31 04:07:08;;;;;;;12.17;10.13;;;;;;;13.88;100.00;101082.59;5010385;28;20180;-74
2021/08/31 04:09:33;;;;;;;10.90;9.90;;;;;;;13.88;100.00;101079.84;5011632;28;20240;-74
2021/08/31 04:11:59;;;;;;;10.97;10.07;;;;;;;13.88;100.00;101095.53;5011521;28;20181;-74
2021/08/31 04:14:24;;;;;;;11.07;9.97;;;;;;;13.87;100.00;101099.41;5010353;28;20257;-75
2021/08/31 04:16:49;;;;;;;12.83;9.87;;;;;;;13.86;100.00;101104.09;5011697;28;20238;-74
2021/08/31 04:19:15;;;;;;;9.90;9.00;;;;;;;13.86;100.00;101100.53;5011241;28;20188;-74
2021/08/31 04:21:40;;;;;;;9.40;8.50;;;;;;;13.85;100.00;101120.88;5011546;28;20620;-74
2021/08/31 04:24:05;;;;;;;10.13;9.17;;;;;;;13.83;100.00;101117.66;5011310;28;20255;-74
2021/08/31 04:26:31;;;;;;;10.77;9.67;;;;;;;13.84;100.00;101122.00;5011486;28;20180;-74
2021/08/31 04:28:56;;;;;;;9.40;8.53;;;;;;;13.82;100.00;101132.50;5011327;28;20278;-74
2021/08/31 04:31:23;;;;;;;11.10;10.20;;;;;;;13.81;100.00;101126.22;5009929;28;20183;-74
2021/08/31 04:33:49;;;;;;;11.53;10.43;;;;;;;13.79;100.00;101144.13;5011548;28;20176;-74
2021/08/31 04:36:15;;;;;;;11.77;10.67;;;;;;;13.78;100.00;101150.75;5011307;28;20651;-75
2021/08/31 04:38:40;;;;;;;10.93;9.53;;;;;;;13.75;100.00;101154.13;5011273;28;20177;-74
2021/08/31 04:41:07;;;;;;;11.20;10.03;;;;;;;13.71;100.00;101148.44;5011627;28;20664;-74
2021/08/31 04:43:32;;;;;;;11.00;10.00;;;;;;;13.69;100.00;101145.22;5011339;28;20183;-74
2021/08/31 04:45:58;;;;;;;9.90;9.00;;;;;;;13.65;100.00;101153.28;5011307;28;20173;-74
2021/08/31 04:48:23;;;;;;;10.87;9.97;;;;;;;13.63;100.00;101152.78;5010193;28;20207;-74
2021/08/31 04:50:48;;;;;;;10.43;9.30;;;;;;;13.61;100.00;101165.22;5011276;28;20196;-74
2021/08/31 04:53:14;;;;;;;10.83;9.57;;;;;;;13.59;100.00;101160.00;5011758;28;20243;-75
2021/08/31 04:55:39;;;;;;;10.47;9.53;;;;;;;13.58;100.00;101166.63;5011159;28;20187;-74
2021/08/31 04:58:04;;;;;;;11.30;9.47;;;;;;;13.58;100.00;101185.03;5011019;28;20196;-75
2021/08/31 05:00:30;;;;;;;10.27;9.37;;;;;;;13.54;100.00;101187.59;5011226;28;20188;-74
2021/08/31 05:02:56;;;;;;;11.33;10.03;;;;;;;13.51;100.00;101188.22;5011744;28;20256;-75
2021/08/31 05:05:23;;;;;;;9.77;8.90;;;;;;;13.49;100.00;101195.16;5009596;28;20187;-75
2021/08/31 05:07:48;;;;;;;10.50;9.47;;;;;;;13.44;100.00;101206.25;5011277;28;20181;-74
2021/08/31 05:10:14;;;;;;;10.13;9.23;;;;;;;13.43;100.00;101210.13;5010794;28;20568;-74
2021/08/31 05:12:39;;;;;;;10.27;9.27;;;;;;;13.39;100.00;101193.47;5011130;28;20226;-75
2021/08/31 05:15:05;;;;;;;12.33;9.43;;;;;;;13.36;100.00;101208.63;5010899;28;20239;-74
2021/08/31 05:17:31;;;;;;;10.97;9.97;;;;;;;13.32;100.00;101201.34;5010844;28;20192;-74
2021/08/31 05:19:57;;;;;;;11.83;10.67;;;;;;;13.30;100.00;101178.84;5010767;28;20624;-74
2021/08/31 05:22:23;;;;;;;10.00;9.10;;;;;;;13.32;100.00;101187.63;5010986;28;20184;-74
2021/08/31 05:24:49;;;;;;;11.10;10.03;;;;;;;13.33;100.00;101187.31;5010825;28;20335;-74
2021/08/31 05:27:14;;;;;;;11.57;10.50;;;;;;;13.36;100.00;101188.59;5010703;28;20256;-75
2021/08/31 05:29:40;;;;;;;12.30;9.10;;;;;;;13.36;100.00;101188.59;5010661;28;20204;-76
2021/08/31 05:32:05;;;;;;;12.17;10.80;;;;;;;13.37;100.00;101187.47;5014047;28;20653;-79
2021/08/31 05:34:31;;;;;;;12.13;10.73;;;;;;;13.40;100.00;101190.41;5013830;28;20180;-75
2021/08/31 05:36:56;;;;;;;10.00;9.10;;;;;;;13.44;100.00;101198.81;5013982;28;20255;-77
2021/08/31 05:39:21;;;;;;;10.60;9.60;;;;;;;13.44;100.00;101189.78;5013742;28;20180;-76
2021/08/31 05:41:47;;;;;;;10.80;9.83;;;;;;;13.46;100.00;101195.78;5013845;28;20488;-76
2021/08/31 05:44:12;;;;;;;10.37;9.17;;;;;;;13.46;100.00;101193.03;5013674;28;20271;-77
2021/08/31 05:46:38;;;;;;;11.07;9.13;;;;;;;13.49;100.00;101197.91;5012471;28;20231;-76
2021/08/31 05:49:03;;;;;;;10.37;9.37;;;;;;;13.48;100.00;101199.03;5012354;28;20190;-77
2021/08/31 05:51:29;;;;;;;9.63;8.83;;;;;;;13.50;100.00;101205.81;5012425;28;20181;-76
2021/08/31 05:53:55;;;;;;;10.03;9.13;;;;;;;13.50;100.00;101202.28;5013806;28;20204;-75
2021/08/31 05:56:20;;;;;;;10.30;9.37;;;;;;;13.51;100.00;101201.16;5013592;28;20169;-76
2021/08/31 05:58:46;;;;;;;9.70;8.77;;;;;;;13.54;100.00;101209.56;5013612;28;20246;-74
2021/08/31 06:01:11;;;;;;;10.20;9.17;;;;;;;13.53;100.00;101202.44;5013630;28;20193;-74
2021/08/31 06:03:36;;;;;;;11.30;10.13;;;;;;;13.54;100.00;101203.25;5013373;28;20189;-74
2021/08/31 06:06:02;;;;;;;11.07;10.07;;;;;;;13.52;100.00;101209.06;5013364;28;20187;-74
2021/08/31 06:08:30;;;;;;;11.27;10.10;;;;;;;13.53;100.00;101207.94;5013186;28;20174;-73
2021/08/31 06:10:56;;;;;;;10.77;9.10;;;;;;;13.52;100.00;101216.50;5012927;28;20743;-74
2021/08/31 06:13:21;;;;;;;11.50;9.63;;;;;;;13.54;100.00;101214.25;5013262;28;20173;-74
2021/08/31 06:15:47;;;;;;;9.23;8.37;;;;;;;13.52;100.00;101216.50;5013102;28;20570;-74
2021/08/31 06:18:12;;;;;;;9.37;8.57;;;;;;;13.51;100.00;101218.44;5012306;28;20648;-73
2021/08/31 06:20:37;;;;;;;10.13;9.20;;;;;;;13.57;100.00;101219.91;5006908;28;20180;-74
2021/08/31 06:23:03;;;;;;;9.50;8.60;;;;;;;13.61;100.00;101222.88;5007743;28;20185;-74
2021/08/31 06:25:28;;;;;;;10.37;9.00;;;;;;;13.65;100.00;101216.44;5006890;28;20172;-74
2021/08/31 06:27:54;;;;;;;12.70;9.90;;;;;;;13.71;100.00;101225.34;5006056;28;20266;-74
2021/08/31 06:30:20;;;;;;;11.53;10.43;;;;;;;13.81;100.00;101218.78;5013511;28;20204;-74
2021/08/31 06:32:45;;;;;;;10.43;9.40;;;;;;;13.84;100.00;101221.72;5013266;28;20249;-74
2021/08/31 06:35:10;;;;;;;11.17;10.17;;;;;;;13.87;100.00;101217.50;5013154;28;20176;-74
2021/08/31 06:37:36;;;;;;;9.90;9.00;;;;;;;13.88;100.00;101219.94;5013213;28;20168;-74
2021/08/31 06:40:01;;;;;;;9.23;8.43;;;;;;;13.84;100.00;101218.97;5013161;28;20532;-74
2021/08/31 06:42:27;;;;;;;10.27;9.37;;;;;;;13.81;100.00;101218.78;5013033;28;20628;-74
2021/08/31 06:44:52;;;;;;;9.83;8.80;;;;;;;13.82;100.00;101214.91;5013100;28;20172;-76
2021/08/31 06:47:17;;;;;;;10.93;9.53;;;;;;;13.84;100.00;101220.91;5002641;28;20176;-76
2021/08/31 06:49:43;;;;;;;11.00;9.43;;;;;;;13.82;100.00;101220.41;5002882;28;20201;-77
2021/08/31 06:52:08;;;;;;;11.70;9.67;;;;;;;13.88;100.00;101221.88;5002453;28;20180;-80
2021/08/31 06:54:34;;;;;;;11.07;9.97;;;;;;;13.94;100.00;101215.97;5003883;28;20185;-78
2021/08/31 06:57:00;;;;;;;12.53;9.57;;;;;;;13.98;100.00;101219.69;5002054;28;20173;-76
2021/08/31 06:59:26;;;;;;;11.20;9.37;;;;;;;14.06;100.00;101223.63;5010922;28;20195;-76
2021/08/31 07:01:51;;;;;;;12.93;11.73;;;;;;;14.10;100.00;101232.84;5003804;28;20183;-77
2021/08/31 07:04:17;;;;;;;12.20;10.97;;;;;;;14.18;100.00;101234.84;5001910;28;20616;-77
2021/08/31 07:06:42;;;;;;;11.77;10.67;;;;;;;14.33;100.00;101227.31;5013064;28;20687;-77
2021/08/31 07:09:07;;;;;;;8.80;8.03;;;;;;;14.40;100.00;101235.88;5011359;28;20654;-76
2021/08/31 07:11:33;;;;;;;12.57;11.03;;;;;;;14.45;100.00;101233.00;5012686;28;20183;-76
2021/08/31 07:13:58;;;;;;;11.07;10.00;;;;;;;14.49;100.00;101242.28;5012786;28;20546;-76
2021/08/31 07:16:23;;;;;;;11.30;10.17;;;;;;;14.44;100.00;101231.41;5012550;28;20307;-77
2021/08/31 07:18:49;;;;;;;11.23;10.20;;;;;;;14.39;100.00;101237.81;5011232;28;20200;-76
2021/08/31 07:21:15;;;;;;;12.13;11.00;;;;;;;14.42;100.00;101245.44;5011863;28;20260;-76
2021/08/31 07:23:41;;;;;;;13.07;11.67;;;;;;;14.48;100.00;101240.66;5007016;28;20181;-76
2021/08/31 07:26:06;;;;;;;14.37;12.97;;;;;;;14.50;100.00;101246.63;5012323;28;20185;-76
2021/08/31 07:28:31;;;;;;;14.50;12.47;;;;;;;14.54;100.00;101242.94;5012574;28;20196;-76
2021/08/31 07:30:57;;;;;;;13.20;11.93;;;;;;;14.62;100.00;101246.84;5010906;28;20204;-75
2021/08/31 07:33:22;;;;;;;13.37;12.03;;;;;;;14.66;100.00;101242.31;5012193;28;20173;-74
2021/08/31 07:35:48;;;;;;;13.03;11.70;;;;;;;14.68;100.00;101245.56;5012556;28;20564;-74
2021/08/31 07:38:13;;;;;;;11.27;9.73;;;;;;;14.54;100.00;101237.44;5012288;28;20647;-74
2021/08/31 07:40:39;;;;;;;13.53;12.13;;;;;;;14.55;100.00;101241.00;5012228;28;20172;-74
2021/08/31 07:43:05;;;;;;;13.07;11.87;;;;;;;14.47;100.00;101237.09;5011170;28;20176;-74
2021/08/31 07:45:31;;;;;;;13.70;12.33;;;;;;;14.56;100.00;101248.09;5011947;28;20188;-75
2021/08/31 07:47:56;;;;;;;12.07;10.87;;;;;;;14.69;100.00;101251.88;5011757;28;20185;-74
2021/08/31 07:50:22;;;;;;;13.07;11.70;;;;;;;14.82;100.00;101256.44;5012079;28;20212;-74
2021/08/31 07:52:47;;;;;;;13.60;11.47;;;;;;;14.83;100.00;101247.88;5011156;28;20584;-74
2021/08/31 07:55:13;;;;;;;10.70;9.70;;;;;;;14.88;100.00;101253.22;5012100;28;20173;-75
2021/08/31 07:57:39;;;;;;;11.20;10.00;;;;;;;14.87;100.00;101254.34;5011865;28;20183;-74
2021/08/31 08:00:07;;;;;;;12.87;10.17;;;;;;;14.85;100.00;101253.03;5011740;28;20180;-74
2021/08/31 08:02:35;;;;;;;12.30;11.00;;;;;;;14.93;100.00;101255.03;5012104;28;20176;-74
2021/08/31 08:05:02;;;;;;;12.00;9.57;;;;;;;14.98;100.00;101251.28;5011503;28;20187;-75
2021/08/31 08:07:28;;;;;;;9.43;8.53;;;;;;;14.88;100.00;101250.47;5011668;28;20234;-74
2021/08/31 08:09:54;;;;;;;12.47;9.97;;;;;;;14.82;100.00;101250.94;5008023;28;20216;-74
2021/08/31 08:12:20;;;;;;;13.57;10.30;;;;;;;14.82;100.00;101245.44;5010804;28;20191;-74
2021/08/31 08:14:49;;;;;;;19.13;10.57;;;;;;;14.85;100.00;101242.84;5011159;28;20188;-74
2021/08/31 08:17:14;;;;;;;12.97;10.67;;;;;;;14.91;100.00;101246.28;5009381;28;20667;-75
2021/08/31 08:19:39;;;;;;;9.93;9.00;;;;;;;15.04;100.00;101250.00;5011375;28;20287;-74
2021/08/31 08:22:05;;;;;;;12.83;10.90;;;;;;;15.18;100.00;101250.66;5011479;28;20180;-74
2021/08/31 08:24:30;;;;;;;11.00;9.80;;;;;;;15.26;100.00;101251.81;5005101;28;20577;-75
2021/08/31 08:26:59;;;;;;;15.07;11.63;;;;;;;15.35;100.00;101256.19;5001499;28;20190;-75
2021/08/31 08:29:24;;;;;;;11.03;9.90;;;;;;;15.44;100.00;101259.75;5007361;28;20196;-74
2021/08/31 08:31:50;;;;;;;8.77;7.77;;;;;;;15.43;100.00;101251.81;5010782;28;20176;-74
2021/08/31 08:34:15;;;;;;;10.47;9.47;;;;;;;15.46;100.00;101254.72;5010641;28;20270;-74
2021/08/31 08:36:41;;;;;;;8.43;7.63;;;;;;;15.59;100.00;101263.16;5002724;28;20219;-74
2021/08/31 08:39:07;;;;;;;9.03;8.13;;;;;;;15.59;100.00;101260.41;5010586;28;20180;-74
2021/08/31 08:41:32;;;;;;;9.40;8.50;;;;;;;15.60;100.00;101253.78;5010623;28;20188;-74
2021/08/31 08:44:01;;;;;;;6.43;5.83;;;;;;;15.67;100.00;101256.88;5010463;28;20242;-74
2021/08/31 08:46:27;;;;;;;14.47;8.03;;;;;;;15.73;100.00;101261.06;5010739;28;20253;-74
2021/08/31 08:48:54;;;;;;;6.07;5.57;;;;;;;15.88;100.00;101252.28;5010985;28;20228;-75
2021/08/31 08:51:21;;;;;;;7.17;6.57;;;;;;;15.88;100.00;101257.78;5010721;28;20235;-75
2021/08/31 08:53:46;;;;;;;7.60;6.90;;;;;;;15.90;100.00;101252.75;5010415;28;20172;-74
2021/08/31 08:56:12;;;;;;;7.57;6.87;;;;;;;16.01;100.00;101258.75;5010561;28;20172;-74
2021/08/31 08:58:37;;;;;;;7.43;6.73;;;;;;;16.08;100.00;101261.00;5010938;28;20177;-74
2021/08/31 09:01:07;;;;;;;7.73;6.23;;;;;;;16.20;100.00;101263.88;5008206;28;20185;-74
2021/08/31 09:03:34;;;;;;;5.60;5.10;;;;;;;16.31;100.00;101263.19;5010567;28;20617;-74
2021/08/31 09:06:12;;;;;;;5.53;4.57;;;;;;;16.36;100.00;101257.50;5010852;28;20187;-75
2021/08/31 09:08:53;;;;;;;6.33;5.60;;;;;;;16.47;100.00;101266.22;5010103;28;20263;-74
2021/08/31 09:11:47;;;;;;;7.13;6.53;;;;;;;16.48;100.00;101259.56;5011045;28;20230;-74
2021/08/31 09:14:29;;;;;;;7.10;6.37;;;;;;;16.53;100.00;101259.38;5011915;28;20196;-74
2021/08/31 09:17:04;;;;;;;7.97;5.23;;;;;;;16.53;100.00;101256.63;5007750;28;20239;-74
2021/08/31 09:19:36;;;;;;;6.73;6.03;;;;;;;16.62;100.00;101257.38;5012464;28;20220;-75
2021/08/31 09:22:10;;;;;;;7.03;6.27;;;;;;;16.66;100.00;101263.06;5014089;28;20176;-74
2021/08/31 09:24:36;;;;;;;5.00;4.63;;;;;;;16.76;100.00;101262.69;5012495;28;20623;-74
2021/08/31 09:27:01;;;;;;;5.83;5.33;;;;;;;16.79;100.00;101262.06;5013824;28;20172;-74
2021/08/31 09:29:26;;;;;;;6.80;5.70;;;;;;;16.83;100.00;101259.44;5014037;28;20546;-74
2021/08/31 09:31:56;;;;;;;4.60;4.20;;;;;;;16.97;100.00;101260.00;5011311;28;20572;-74
2021/08/31 09:34:33;;;;;;;5.23;4.77;;;;;;;17.07;100.00;101344.38;5013665;28;20184;-75
2021/08/31 09:37:25;;;;;;;6.47;5.87;;;;;;;17.35;100.00;101320.63;5014217;28;20172;-74
2021/08/31 09:40:05;;;;;;;5.17;4.67;;;;;;;17.40;100.00;101314.13;5011620;28;20195;-74
2021/08/31 09:42:32;;;;;;;5.27;4.77;;;;;;;17.33;100.00;101311.06;5013168;28;20172;-74
2021/08/31 09:45:06;;;;;;;4.87;4.47;;;;;;;17.38;100.00;101308.94;5013331;28;20564;-74
2021/08/31 09:47:36;;;;;;;5.63;5.13;;;;;;;17.49;100.00;101309.31;5014303;28;20255;-74
2021/08/31 09:50:06;;;;;;;11.30;4.70;;;;;;;17.57;100.00;101313.19;5013784;28;20227;-74
2021/08/31 09:52:32;;;;;;;6.73;5.93;;;;;;;17.64;100.00;101308.72;5013396;28;20583;-74
2021/08/31 09:54:57;;;;;;;6.47;5.43;;;;;;;17.71;100.00;101302.69;5013557;28;20695;-74
2021/08/31 09:57:41;;;;;;;5.33;4.53;;;;;;;17.74;100.00;101290.94;5013682;28;20169;-74
2021/08/31 10:00:15;;;;;;;5.80;5.27;;;;;;;17.83;100.00;101300.78;5013625;28;20256;-74
2021/08/31 10:02:42;;;;;;;5.10;4.60;;;;;;;17.91;100.00;101298.28;5013641;28;20165;-74
2021/08/31 10:05:08;;;;;;;3.10;2.80;;;;;;;18.01;100.00;101295.09;5013677;28;20723;-74
2021/08/31 10:07:34;;;;;;;5.00;4.60;;;;;;;18.04;100.00;101299.94;5013747;28;20177;-74
2021/08/31 10:10:01;;;;;;;5.63;5.13;;;;;;;18.14;100.00;101285.69;5013573;28;20200;-74
2021/08/31 10:12:29;;;;;;;5.70;5.20;;;;;;;18.22;100.00;101293.06;5013472;28;20223;-74
2021/08/31 10:14:56;;;;;;;4.57;4.17;;;;;;;18.22;95.67;101292.25;5013004;28;20177;-74
2021/08/31 10:17:26;;;;;;;5.07;4.27;;;;;;;18.34;95.15;101293.09;5012611;28;20184;-75
2021/08/31 10:19:55;;;;;;;5.00;4.37;;;;;;;18.16;93.26;101294.44;5013421;28;20753;-74
2021/08/31 10:22:21;;;;;;;3.73;3.43;;;;;;;18.39;93.67;101301.19;5013456;28;20580;-74
2021/08/31 10:24:48;;;;;;;3.80;3.50;;;;;;;18.49;95.18;101299.91;5012908;28;20173;-74
2021/08/31 10:27:32;;;;;;;5.70;5.20;;;;;;;18.70;97.62;101297.09;5013097;28;20231;-74
2021/08/31 10:30:12;;;;;;;5.97;5.47;;;;;;;18.68;93.58;101294.69;5013107;28;20199;-74
2021/08/31 10:32:38;;;;;;;5.77;5.27;;;;;;;18.71;95.27;101296.75;5012978;28;20198;-74
2021/08/31 10:35:03;;;;;;;5.53;5.10;;;;;;;18.84;97.03;101296.75;5011592;28;20722;-74
2021/08/31 10:37:43;;;;;;;4.60;4.17;;;;;;;18.88;96.91;101295.72;5012961;28;20175;-74
2021/08/31 10:40:09;;;;;;;5.27;4.87;;;;;;;18.90;95.19;101298.13;5010682;28;20582;-74
2021/08/31 10:42:34;;;;;;;5.43;5.03;;;;;;;18.89;94.39;101302.06;5012665;28;20184;-74
2021/08/31 10:45:26;;;;;;;5.70;5.20;;;;;;;18.99;93.15;101154.81;5007520;28;20181;-74
2021/08/31 10:47:52;;;;;;;4.53;4.23;;;;;;;19.12;90.63;101264.41;5005824;28;20593;-78
2021/08/31 10:50:20;;;;;;;4.47;4.13;;;;;;;19.10;88.57;101199.44;5010983;28;20236;-74
2021/08/31 10:53:02;;;;;;;4.63;4.23;;;;;;;19.02;87.11;101203.94;5012795;28;20165;-75
2021/08/31 10:55:28;;;;;;;3.93;2.80;;;;;;;19.11;85.33;101223.22;5009923;28;20652;-74
2021/08/31 10:57:57;;;;;;;4.20;3.80;;;;;;;19.24;86.12;101222.00;5009299;28;20176;-74
2021/08/31 11:00:27;;;;;;;4.03;3.63;;;;;;;19.40;84.14;101219.31;5012650;28;20188;-74
2021/08/31 11:02:58;;;;;;;3.60;3.30;;;;;;;19.45;83.73;101228.19;5012823;28;20187;-74
2021/08/31 11:05:24;;;;;;;3.93;3.47;;;;;;;19.55;84.43;101221.38;5012644;28;20175;-74
2021/08/31 11:08:09;;;;;;;4.93;3.40;;;;;;;19.44;83.14;101226.56;5011205;28;20264;-73
2021/08/31 11:10:42;;;;;;;3.67;3.37;;;;;;;19.44;83.41;101283.97;5009711;28;20311;-74
2021/08/31 11:13:11;;;;;;;3.27;3.00;;;;;;;19.67;84.84;101273.16;5004152;28;20193;-74